Du har inga inställningar för hoppväder.nu

Hoppväder.nu

Senast uppdaterat 01:46

UTC-tid

2022-05-23 kl. 23:46


Sol och måne

Solen går upp 2:41 och går ner 23:24 (beräknade cirkatider)
Nästa fullmåne blir om 21 dagar (2022-06-14)

METAR

ESNS (Skellefteå)
(1466 minuter sedan)
ESNS 232320Z AUTO 21005KT 9999 NCD 09/03 Q1010=



ESNU (Umeå)
(1466 minuter sedan)
ESNU 232320Z AUTO VRB01KT 8000 NCD 02/01 Q1011=



ESPA (Luleå)
(1466 minuter sedan)
ESPA 232320Z AUTO VRB01KT 9999 NCD 04/02 Q1010=









TAF

ESNS (Skellefteå)
ESNS



ESNU (Umeå)
(1456 minuter sedan)
ESNU 232330Z 2400/2409 16004KT CAVOK=



ESPA (Luleå)
(376 minuter sedan)
ESPA 231730Z 2318/2322 13007KT CAVOK=





Kodnycklar till TAF och METAR






LHP

(Skellefteå är område se44b i Delområde 1)

Prognos är inte uppdaterad






Preliminär prognos